ADDS METAR Data INFO
IDs: Format: Raw Decoded Include TAF

Data at: 2136 UTC 15 Dec 2017

KIWA 152047Z 00000KT 25SM SKC 20/M08 A3013
KIWA 151955Z 00000KT 25SM SKC 20/M08 A3016
KIWA 151747Z 00000KT 20SM SKC 18/M07 A3023
KIWA 151647Z 00000KT 35SM SKC 16/M08 A3024
KIWA 151555Z 12004KT 35SM SKC 13/M08 A3023
KIWA 151447Z 06005KT 45SM SKC 11/M09 A3021
KIWA 151347Z VRB05KT 20SM SKC 12/M09 A3018
KIWA 151250Z 12008KT 20SM SKC 13/M09 A3017
KIWA 151150Z 08005KT 20SM SKC 15/M11 A3017
KIWA 151135Z AUTO 07004KT 10SM CLR 13/M09 A3017 RMK AO2
KIWA 151115Z AUTO 00000KT 10SM CLR 15/M10 A3017 RMK AO2
KIWA 151055Z AUTO 07004KT 10SM CLR 15/M09 A3017 RMK AO2
KIWA 151035Z AUTO 00000KT 10SM CLR 15/M08 A3017 RMK AO2
KIWA 151015Z AUTO 00000KT 10SM CLR 14/M08 A3016 RMK AO2
KIWA 150955Z AUTO 06007KT 10SM CLR 14/M07 A3014 RMK AO2
KIWA 150935Z AUTO 02008KT 10SM CLR 15/M06 A3015 RMK AO2
KIWA 150915Z AUTO 33009KT 10SM CLR 13/M06 A3014 RMK AO2
KIWA 150855Z AUTO 04007KT 10SM CLR 16/M06 A3014 RMK AO2
KIWA 150835Z AUTO 05008KT 10SM CLR 16/M06 A3013 RMK AO2
KIWA 150815Z AUTO 05011KT 10SM CLR 16/M06 A3012 RMK AO2
KIWA 150755Z AUTO 06011KT 10SM CLR 17/M06 A3012 RMK AO2
KIWA 150735Z AUTO 05012KT 10SM CLR 17/M05 A3012 RMK AO2
KIWA 150715Z AUTO 05013KT 10SM CLR 16/M05 A3012 RMK AO2
KIWA 150651Z 03009G15KT 10M SKC 18/M05 A3012
KIWA 150559Z 05013KT 10SM SKC 18/M05 A3009
KIWA 150459Z 35008KT 10SM SKC 17/M06 A3008
KIWA 150347Z 02011KT 10SM SKC 18/M06 A3005
KIWA 150247Z 01006KT 10SM SKC 17/M06 A3003
KIWA 150147Z 03007KT 10SM SKC 18/M05 A3001
KIWA 150047Z 36005KT 10SM SKC 18/M07 A2999
KIWA 142347Z 30009KT 20SM SKC 21/M07 A2997
KIWA 142247Z 30012KT 20SM SKC 22/M07 A2995
KIWA 142151Z 27007KT 45SM SKC 22/M08 A2994
KIWA 142047Z 27006KT 35SM SKC 20/M09 A2995
KIWA 141950Z 28005KT 35SM SKC 19/M06 A2997
KIWA 141847Z 00000KT 45SM SKC 18/M09 A2999
KIWA 141747Z 25003KT 35SM SKC 15/M08 A3000
KIWA 141650Z 00000KT 35SM SKC 12/M09 A3000
KIWA 141547Z 17005KT 45SM SKC 08/M08 A2998
KIWA 141449Z 14006KT 45SM SKC 04/M09 A2997
KIWA 141347Z 10007KT 20SM FEW250 05/M12 A2994
KIWA 141247Z 11007KT 20SM SKC 05/M13 A2993
KIWA 141150Z 12008KT 20SM SKC 06/M12 A2992
KIWA 141135Z AUTO 11008KT 10SM CLR 05/M12 A2992 RMK AO2
KIWA 141115Z AUTO 10008KT 10SM CLR 05/M12 A2993 RMK AO2
KIWA 141055Z AUTO 12008KT 10SM CLR 05/M11 A2992 RMK AO2
KIWA 141035Z AUTO 12008KT 10SM CLR 05/M12 A2992 RMK AO2
KIWA 141015Z AUTO 11008KT 10SM CLR 05/M13 A2993 RMK AO2
KIWA 140955Z AUTO 10006KT 10SM CLR 05/M13 A2994 RMK AO2